createdAt,value
2022-09-15T00:00:32.072Z,7.30
2022-09-15T00:02:59.038Z,8.07
2022-09-15T00:05:26.181Z,7.45
2022-09-15T00:07:53.143Z,8.45
2022-09-15T00:10:20.485Z,7.28
2022-09-15T00:12:47.617Z,7.68
2022-09-15T00:15:15.231Z,8.27
2022-09-15T00:17:43.662Z,8.05
2022-09-15T00:20:11.003Z,8.20
2022-09-15T00:22:37.951Z,7.10
2022-09-15T00:25:05.973Z,8.23
2022-09-15T00:27:33.710Z,7.93
2022-09-15T00:30:00.781Z,7.40
2022-09-15T00:32:29.277Z,7.90
2022-09-15T00:34:56.258Z,8.15
2022-09-15T00:37:23.348Z,9.38
2022-09-15T00:39:50.361Z,7.60
2022-09-15T00:42:22.320Z,8.02
2022-09-15T00:44:56.838Z,8.25
2022-09-15T00:47:39.339Z,7.75
2022-09-15T00:50:12.273Z,8.60
2022-09-15T00:52:55.037Z,9.18
2022-09-15T00:55:35.885Z,7.03
2022-09-15T00:58:08.740Z,8.50
2022-09-15T01:00:36.743Z,8.20
2022-09-15T01:03:04.498Z,8.02
2022-09-15T01:05:38.045Z,7.75
2022-09-15T01:08:09.956Z,8.63
2022-09-15T01:10:39.796Z,8.93
2022-09-15T01:13:12.359Z,7.85
2022-09-15T01:16:12.583Z,7.88
2022-09-15T01:19:01.479Z,8.02
2022-09-15T01:21:46.913Z,7.90
2022-09-15T01:24:25.605Z,9.25
2022-09-15T01:27:40.500Z,10.27
2022-09-15T01:30:19.386Z,8.07
2022-09-15T01:33:22.421Z,9.02
2022-09-15T01:36:19.881Z,8.27
2022-09-15T01:39:23.295Z,8.02
2022-09-15T01:41:58.243Z,8.90
2022-09-15T01:44:29.257Z,8.52
2022-09-15T01:47:00.437Z,8.88
2022-09-15T01:49:33.901Z,8.73
2022-09-15T01:52:01.548Z,8.00
2022-09-15T01:54:37.044Z,7.47
2022-09-15T01:57:04.203Z,6.68
2022-09-15T01:59:31.240Z,7.72
2022-09-15T02:02:05.716Z,6.65
2022-09-15T02:04:51.045Z,7.07
2022-09-15T02:07:48.537Z,7.47
2022-09-15T02:10:38.314Z,6.07
2022-09-15T02:13:17.029Z,7.10
2022-09-15T02:15:56.837Z,6.85
2022-09-15T02:18:44.037Z,6.05
2022-09-15T02:23:50.828Z,6.63
2022-09-15T02:26:21.344Z,6.97
2022-09-15T02:28:50.479Z,5.88
2022-09-15T02:31:20.039Z,7.40
2022-09-15T02:33:53.638Z,5.75
2022-09-15T02:36:21.413Z,6.95
2022-09-15T02:38:55.630Z,7.35
2022-09-15T02:41:23.890Z,7.30
2022-09-15T02:43:51.105Z,7.40
2022-09-15T02:46:21.319Z,6.53
2022-09-15T02:48:48.447Z,7.05
2022-09-15T02:51:17.133Z,5.93
2022-09-15T02:53:45.584Z,7.25
2022-09-15T02:56:12.973Z,8.55
2022-09-15T03:01:10.150Z,7.45
2022-09-15T03:03:39.904Z,6.30
2022-09-15T03:06:16.453Z,7.72
2022-09-15T03:08:44.409Z,7.65
2022-09-15T03:11:12.142Z,7.03
2022-09-15T03:13:39.852Z,7.45
2022-09-15T03:16:16.373Z,7.28
2022-09-15T03:18:43.719Z,7.60
2022-09-15T03:21:13.649Z,8.15
2022-09-15T03:23:41.695Z,7.38
2022-09-15T03:26:10.316Z,6.68
2022-09-15T03:28:38.935Z,7.15
2022-09-15T03:31:07.230Z,7.25
2022-09-15T03:33:34.498Z,7.63
2022-09-15T03:36:02.832Z,8.13
2022-09-15T03:38:29.917Z,8.95
2022-09-15T03:41:06.255Z,7.95
2022-09-15T03:43:34.619Z,6.40
2022-09-15T03:46:02.863Z,9.30
2022-09-15T03:48:31.668Z,8.50
2022-09-15T03:50:58.652Z,9.57
2022-09-15T03:53:25.593Z,9.25
2022-09-15T03:55:52.906Z,9.85
2022-09-15T03:58:19.919Z,9.82
2022-09-15T04:00:47.406Z,9.68
2022-09-15T04:03:14.747Z,9.63
2022-09-15T04:05:42.165Z,9.85
2022-09-15T04:08:12.532Z,9.07
2022-09-15T04:10:41.205Z,9.98
2022-09-15T04:13:08.277Z,10.52
2022-09-15T04:15:35.214Z,10.80
2022-09-15T04:18:02.186Z,12.05
2022-09-15T04:20:29.063Z,10.20
2022-09-15T04:22:55.956Z,11.07
2022-09-15T04:25:24.146Z,9.45
2022-09-15T04:27:51.040Z,11.80
2022-09-15T04:30:18.045Z,10.40
2022-09-15T04:32:44.924Z,10.15
2022-09-15T04:35:12.283Z,8.10
2022-09-15T04:37:39.763Z,10.82
2022-09-15T04:42:34.013Z,10.20
2022-09-15T04:45:00.939Z,10.88
2022-09-15T04:47:27.975Z,11.35
2022-09-15T04:49:54.853Z,10.95
2022-09-15T04:52:21.771Z,10.68
2022-09-15T04:54:48.721Z,11.30
2022-09-15T04:57:15.581Z,10.32
2022-09-15T04:59:42.481Z,11.57
2022-09-15T05:02:09.417Z,10.50
2022-09-15T05:04:36.367Z,9.82
2022-09-15T05:07:03.333Z,10.60
2022-09-15T05:09:30.973Z,9.98
2022-09-15T05:11:58.062Z,9.10
2022-09-15T05:14:25.024Z,10.13
2022-09-15T05:16:51.935Z,9.30
2022-09-15T05:19:19.605Z,9.85
2022-09-15T05:21:46.630Z,8.88
2022-09-15T05:24:13.556Z,9.07
2022-09-15T05:26:40.464Z,8.75
2022-09-15T05:29:07.472Z,8.10
2022-09-15T05:31:35.061Z,7.05
2022-09-15T05:34:04.280Z,9.50
2022-09-15T05:36:32.077Z,8.13
2022-09-15T05:38:59.357Z,8.23
2022-09-15T05:41:27.712Z,8.50
2022-09-15T05:43:58.090Z,8.55
2022-09-15T05:46:26.337Z,9.52
2022-09-15T05:48:55.035Z,8.82
2022-09-15T05:51:22.581Z,8.73
2022-09-15T05:53:49.594Z,8.52
2022-09-15T05:56:17.440Z,8.38
2022-09-15T05:58:46.754Z,8.70
2022-09-15T06:01:23.645Z,8.38
2022-09-15T06:03:51.303Z,9.02
2022-09-15T06:06:18.564Z,7.75
2022-09-15T06:08:51.727Z,8.20
2022-09-15T06:11:23.509Z,9.05
2022-09-15T06:13:50.930Z,8.88
2022-09-15T06:18:48.590Z,8.27
2022-09-15T06:21:27.704Z,9.02
2022-09-15T06:24:03.649Z,10.20
2022-09-15T06:26:30.757Z,8.30
2022-09-15T06:29:00.497Z,8.38
2022-09-15T06:31:30.064Z,8.63
2022-09-15T06:33:57.951Z,8.63
2022-09-15T06:36:30.364Z,9.55
2022-09-15T06:38:58.448Z,8.68
2022-09-15T06:41:25.466Z,9.70
2022-09-15T06:43:53.098Z,7.93
2022-09-15T06:46:25.561Z,9.00
2022-09-15T06:48:53.637Z,8.63
2022-09-15T06:51:23.907Z,8.50
2022-09-15T06:53:53.100Z,8.13
2022-09-15T06:56:22.345Z,9.35
2022-09-15T06:58:49.646Z,8.90
2022-09-15T07:01:28.565Z,8.02
2022-09-15T07:03:58.732Z,8.73
2022-09-15T07:06:29.152Z,8.10
2022-09-15T07:08:56.751Z,9.80
2022-09-15T07:11:23.989Z,8.85
2022-09-15T07:13:51.462Z,8.73
2022-09-15T07:16:19.459Z,9.18
2022-09-15T07:18:47.562Z,8.77
2022-09-15T07:21:20.095Z,8.98
2022-09-15T07:23:48.116Z,8.55
2022-09-15T07:26:27.116Z,8.68
2022-09-15T07:28:56.601Z,9.40
2022-09-15T07:31:25.845Z,8.75
2022-09-15T07:33:53.387Z,9.13
2022-09-15T07:36:21.389Z,8.23
2022-09-15T07:38:50.015Z,7.55
2022-09-15T07:41:25.742Z,7.63
2022-09-15T07:43:55.256Z,7.00
2022-09-15T07:46:23.929Z,7.15
2022-09-15T07:48:53.315Z,6.55
2022-09-15T07:51:20.758Z,6.95
2022-09-15T07:53:48.446Z,6.80
2022-09-15T07:56:18.629Z,5.88
2022-09-15T07:58:46.898Z,6.38
2022-09-15T08:01:15.120Z,6.95
2022-09-15T08:03:44.174Z,6.88
2022-09-15T08:06:11.773Z,6.57
2022-09-15T08:08:39.785Z,7.05
2022-09-15T08:11:16.358Z,6.72
2022-09-15T08:13:49.636Z,5.88
2022-09-15T08:16:23.200Z,6.03
2022-09-15T08:18:52.914Z,5.97
2022-09-15T08:21:21.192Z,6.40
2022-09-15T08:23:56.611Z,4.93
2022-09-15T08:26:24.845Z,4.63
2022-09-15T08:28:52.151Z,4.45
2022-09-15T08:31:19.396Z,4.25
2022-09-15T08:33:51.645Z,4.07
2022-09-15T08:36:18.961Z,4.07
2022-09-15T08:41:31.314Z,4.53
2022-09-15T08:44:32.231Z,4.15
2022-09-15T08:47:20.538Z,4.05
2022-09-15T08:50:05.089Z,3.72
2022-09-15T08:52:48.097Z,4.68
2022-09-15T08:55:22.666Z,4.40
2022-09-15T08:57:53.033Z,4.07
2022-09-15T09:00:20.228Z,3.25
2022-09-15T09:02:58.092Z,3.17
2022-09-15T09:05:31.639Z,4.03
2022-09-15T09:08:05.837Z,3.33
2022-09-15T09:10:39.786Z,2.63
2022-09-15T09:13:35.813Z,3.58
2022-09-15T09:16:09.698Z,2.42
2022-09-15T09:19:14.425Z,2.38
2022-09-15T09:21:48.229Z,2.50
2022-09-15T09:24:42.492Z,2.38
2022-09-15T09:27:14.369Z,2.30
2022-09-15T09:29:51.358Z,2.45
2022-09-15T09:32:35.150Z,1.23
2022-09-15T09:35:05.200Z,1.77
2022-09-15T09:37:33.285Z,1.40
2022-09-15T09:40:00.802Z,1.55
2022-09-15T09:42:37.184Z,1.52
2022-09-15T09:45:05.820Z,0.70
2022-09-15T09:47:36.270Z,0.90
2022-09-15T09:50:03.237Z,0.80
2022-09-15T09:52:38.505Z,1.05
2022-09-15T09:55:27.140Z,0.90
2022-09-15T09:58:10.646Z,1.30
2022-09-15T10:00:40.304Z,1.33
2022-09-15T10:03:29.391Z,1.05
2022-09-15T10:06:06.139Z,0.50
2022-09-15T10:08:35.397Z,1.17
2022-09-15T10:11:10.341Z,0.75
2022-09-15T10:13:50.824Z,0.75
2022-09-15T10:16:19.388Z,1.33
2022-09-15T10:18:53.572Z,0.90
2022-09-15T10:21:24.677Z,1.08
2022-09-15T10:23:52.320Z,0.50
2022-09-15T10:26:34.735Z,0.93
2022-09-15T10:29:16.606Z,0.60
2022-09-15T10:31:44.788Z,0.65
2022-09-15T10:34:26.345Z,0.65
2022-09-15T10:37:01.510Z,1.17
2022-09-15T10:39:40.166Z,0.68
2022-09-15T10:42:18.008Z,0.82
2022-09-15T10:44:48.004Z,0.80
2022-09-15T10:47:20.760Z,0.95
2022-09-15T10:50:07.829Z,0.98
2022-09-15T10:53:10.021Z,1.02
2022-09-15T10:55:52.827Z,0.60
2022-09-15T10:58:45.805Z,0.60
2022-09-15T11:01:28.633Z,0.65
2022-09-15T11:04:07.625Z,1.05
2022-09-15T11:07:03.632Z,0.90
2022-09-15T11:09:53.734Z,0.75
2022-09-15T11:12:45.705Z,0.98
2022-09-15T11:15:46.533Z,0.77
2022-09-15T11:18:58.130Z,1.50
2022-09-15T11:21:42.856Z,0.85
2022-09-15T11:24:13.056Z,0.98
2022-09-15T11:26:52.127Z,0.80
2022-09-15T11:29:21.984Z,1.00
2022-09-15T11:31:55.609Z,0.70
2022-09-15T11:34:31.999Z,0.95
2022-09-15T11:37:36.741Z,1.37
2022-09-15T11:40:24.115Z,1.10
2022-09-15T11:43:15.760Z,1.40
2022-09-15T11:45:49.773Z,0.98
2022-09-15T11:48:24.338Z,0.70
2022-09-15T11:50:56.277Z,0.90
2022-09-15T11:53:29.066Z,1.00
2022-09-15T11:56:09.348Z,0.80
2022-09-15T11:59:18.597Z,0.98
2022-09-15T12:02:26.066Z,1.00
2022-09-15T12:05:17.717Z,1.25
2022-09-15T12:07:47.643Z,0.88
2022-09-15T12:10:41.676Z,1.02
2022-09-15T12:13:16.790Z,0.73
2022-09-15T12:15:45.214Z,0.80
2022-09-15T12:18:37.790Z,0.75
2022-09-15T12:21:19.767Z,0.70
2022-09-15T12:23:52.689Z,0.93
2022-09-15T12:26:25.913Z,1.00
2022-09-15T12:29:04.134Z,0.75
2022-09-15T12:31:40.713Z,1.05
2022-09-15T12:34:36.760Z,1.15
2022-09-15T12:37:18.108Z,1.10
2022-09-15T12:39:47.010Z,1.15
2022-09-15T12:42:20.342Z,1.00
2022-09-15T12:44:52.605Z,0.80
2022-09-15T12:47:50.438Z,0.70
2022-09-15T12:50:17.268Z,0.80
2022-09-15T12:52:51.462Z,0.80
2022-09-15T12:55:28.865Z,0.90
2022-09-15T12:58:00.162Z,0.70
2022-09-15T13:00:33.683Z,0.57
2022-09-15T13:03:02.065Z,0.60
2022-09-15T13:05:46.706Z,0.70
2022-09-15T13:08:36.481Z,0.73
2022-09-15T13:11:11.057Z,0.88
2022-09-15T13:14:06.598Z,0.77
2022-09-15T13:17:12.215Z,0.70
2022-09-15T13:19:46.797Z,1.20
2022-09-15T13:22:13.760Z,0.85
2022-09-15T13:25:13.752Z,1.02
2022-09-15T13:28:08.800Z,0.77
2022-09-15T13:30:53.897Z,0.50
2022-09-15T13:40:25.306Z,1.42
2022-09-15T13:43:25.645Z,1.08
2022-09-15T13:46:04.775Z,1.00
2022-09-15T13:48:35.110Z,1.10
2022-09-15T13:51:06.277Z,0.90
2022-09-15T13:53:56.382Z,0.95
2022-09-15T13:56:31.377Z,1.48
2022-09-15T13:59:09.629Z,0.82
2022-09-15T14:01:39.793Z,1.08
2022-09-15T14:04:19.231Z,0.93
2022-09-15T14:06:49.196Z,1.13
2022-09-15T14:09:23.381Z,1.38
2022-09-15T14:11:57.871Z,0.90
2022-09-15T14:14:27.624Z,0.90
2022-09-15T14:16:56.580Z,0.73
2022-09-15T14:19:33.713Z,0.90
2022-09-15T14:22:22.125Z,1.13
2022-09-15T14:24:50.603Z,0.80
2022-09-15T14:27:24.809Z,0.93
2022-09-15T14:29:57.769Z,1.20
2022-09-15T14:32:26.789Z,0.82
2022-09-15T14:34:57.080Z,0.90
2022-09-15T14:37:28.394Z,0.90
2022-09-15T14:39:57.976Z,1.02
2022-09-15T14:42:36.086Z,0.82
2022-09-15T14:48:06.501Z,1.08
2022-09-15T14:50:33.873Z,1.08
2022-09-15T14:53:09.942Z,1.02
2022-09-15T14:55:54.776Z,0.88
2022-09-15T14:58:43.060Z,1.15
2022-09-15T15:01:38.760Z,0.90
2022-09-15T15:04:14.626Z,0.90
2022-09-15T15:06:50.308Z,1.08
2022-09-15T15:09:34.204Z,1.00
2022-09-15T15:12:06.726Z,0.70
2022-09-15T15:14:35.647Z,0.95
2022-09-15T15:17:08.166Z,0.80
2022-09-15T15:19:39.603Z,0.63
2022-09-15T15:22:17.324Z,0.47
2022-09-15T15:24:46.181Z,1.27
2022-09-15T15:27:31.933Z,0.70
2022-09-15T15:30:26.530Z,0.60
2022-09-15T15:32:54.217Z,0.90
2022-09-15T15:35:21.555Z,1.00
2022-09-15T15:40:23.371Z,0.85
2022-09-15T15:43:21.288Z,0.70
2022-09-15T15:45:58.661Z,0.43
2022-09-15T15:48:26.568Z,0.70
2022-09-15T15:50:54.340Z,0.50
2022-09-15T15:53:21.563Z,0.82
2022-09-15T15:58:16.216Z,0.65
2022-09-15T16:00:44.910Z,0.80
2022-09-15T16:03:12.918Z,0.50
2022-09-15T16:05:41.672Z,1.25
2022-09-15T16:08:16.793Z,0.50
2022-09-15T16:10:47.838Z,0.73
2022-09-15T16:13:19.841Z,1.00
2022-09-15T16:15:47.330Z,1.08
2022-09-15T16:18:14.865Z,0.98
2022-09-15T16:20:42.305Z,1.13
2022-09-15T16:25:59.375Z,1.30
2022-09-15T16:28:26.572Z,0.80
2022-09-15T16:30:53.460Z,1.20
2022-09-15T16:33:20.873Z,0.98
2022-09-15T16:38:25.424Z,0.68
2022-09-15T16:40:52.705Z,1.10
2022-09-15T16:45:50.489Z,1.13
2022-09-15T16:48:17.835Z,1.05
2022-09-15T16:53:32.653Z,1.08
2022-09-15T16:55:59.569Z,0.98
2022-09-15T16:58:26.537Z,1.40
2022-09-15T17:00:53.618Z,0.98
2022-09-15T17:03:23.845Z,0.88
2022-09-15T17:05:52.999Z,1.10
2022-09-15T17:08:23.402Z,1.13
2022-09-15T17:10:52.768Z,1.10
2022-09-15T17:13:25.096Z,0.93
2022-09-15T17:15:55.504Z,1.27
2022-09-15T17:18:23.009Z,1.45
2022-09-15T17:20:51.235Z,0.80
2022-09-15T17:23:24.474Z,1.30
2022-09-15T17:25:53.376Z,0.80
2022-09-15T17:28:22.727Z,1.45
2022-09-15T17:30:58.246Z,1.20
2022-09-15T17:33:25.810Z,1.83
2022-09-15T17:35:53.356Z,1.20
2022-09-15T17:38:21.957Z,1.48
2022-09-15T17:40:55.099Z,0.90
2022-09-15T17:43:27.821Z,1.23
2022-09-15T17:45:55.757Z,0.98
2022-09-15T17:48:22.980Z,0.95
2022-09-15T17:50:50.825Z,1.20
2022-09-15T17:53:23.428Z,1.33
2022-09-15T17:55:51.698Z,1.20
2022-09-15T17:58:19.158Z,1.25
2022-09-15T18:03:33.322Z,1.02
2022-09-15T18:06:04.192Z,1.20
2022-09-15T18:08:32.792Z,1.38
2022-09-15T18:11:00.782Z,1.60
2022-09-15T18:13:30.101Z,1.20
2022-09-15T18:15:58.330Z,1.20
2022-09-15T18:18:27.421Z,1.08
2022-09-15T18:20:57.844Z,1.67
2022-09-15T18:23:30.694Z,1.00
2022-09-15T18:25:58.105Z,1.35
2022-09-15T18:28:25.616Z,1.33
2022-09-15T18:30:55.601Z,1.88
2022-09-15T18:33:26.315Z,1.35
2022-09-15T18:35:56.416Z,1.40
2022-09-15T18:38:24.579Z,1.58
2022-09-15T18:40:54.035Z,1.10
2022-09-15T18:43:22.370Z,0.90
2022-09-15T18:45:50.194Z,1.48
2022-09-15T18:48:17.234Z,1.15
2022-09-15T18:50:45.429Z,1.02
2022-09-15T18:53:12.789Z,1.42
2022-09-15T18:55:43.640Z,1.17
2022-09-15T18:58:11.817Z,1.10
2022-09-15T19:00:39.443Z,0.60
2022-09-15T19:03:09.481Z,0.90
2022-09-15T19:05:37.309Z,1.25
2022-09-15T19:08:04.586Z,1.83
2022-09-15T19:10:32.432Z,1.25
2022-09-15T19:12:59.331Z,1.23
2022-09-15T19:15:26.282Z,0.88
2022-09-15T19:17:53.225Z,0.82
2022-09-15T19:20:20.269Z,0.90
2022-09-15T19:22:47.599Z,0.88
2022-09-15T19:25:15.046Z,0.90
2022-09-15T19:27:43.053Z,0.77
2022-09-15T19:30:11.876Z,0.90
2022-09-15T19:32:39.604Z,0.75
2022-09-15T19:35:08.357Z,1.15
2022-09-15T19:37:37.644Z,0.90
2022-09-15T19:40:08.561Z,0.77
2022-09-15T19:42:36.629Z,0.98
2022-09-15T19:45:04.132Z,1.00
2022-09-15T19:47:31.221Z,1.00
2022-09-15T19:49:58.298Z,1.20
2022-09-15T19:52:25.228Z,1.48
2022-09-15T19:54:52.166Z,0.75
2022-09-15T19:57:19.629Z,0.90
2022-09-15T20:02:13.955Z,0.70
2022-09-15T20:04:41.281Z,1.20
2022-09-15T20:07:08.208Z,1.20
2022-09-15T20:09:35.497Z,0.60
2022-09-15T20:12:03.370Z,0.68
2022-09-15T20:14:31.390Z,0.63
2022-09-15T20:17:01.178Z,0.90
2022-09-15T20:19:29.516Z,1.00
2022-09-15T20:21:56.516Z,1.05
2022-09-15T20:24:24.275Z,1.30
2022-09-15T20:26:51.403Z,1.13
2022-09-15T20:29:19.572Z,1.05
2022-09-15T20:31:47.276Z,1.10
2022-09-15T20:34:14.631Z,0.80
2022-09-15T20:41:37.800Z,0.73
2022-09-15T20:44:05.975Z,0.70
2022-09-15T20:46:33.517Z,0.75
2022-09-15T20:49:01.451Z,0.90
2022-09-15T20:51:31.628Z,0.63
2022-09-15T20:54:00.213Z,0.70
2022-09-15T20:56:29.191Z,0.63
2022-09-15T20:59:00.113Z,0.70
2022-09-15T21:01:36.549Z,0.70
2022-09-15T21:04:06.570Z,0.80
2022-09-15T21:06:34.332Z,0.90
2022-09-15T21:09:01.715Z,0.70
2022-09-15T21:13:56.934Z,0.80
2022-09-15T21:16:26.574Z,0.70
2022-09-15T21:18:55.322Z,0.60
2022-09-15T21:21:25.169Z,0.77
2022-09-15T21:23:54.996Z,0.90
2022-09-15T21:26:24.952Z,0.65
2022-09-15T21:28:53.305Z,0.77
2022-09-15T21:31:22.659Z,0.63
2022-09-15T21:33:51.168Z,0.80
2022-09-15T21:36:23.162Z,0.73
2022-09-15T21:38:52.075Z,0.70
2022-09-15T21:41:21.437Z,0.80
2022-09-15T21:43:49.673Z,0.93
2022-09-15T21:46:18.858Z,1.00
2022-09-15T21:48:48.707Z,1.00
2022-09-15T21:51:23.960Z,0.57
2022-09-15T21:53:52.855Z,0.95
2022-09-15T21:56:19.897Z,0.65
2022-09-15T21:58:46.897Z,0.95
2022-09-15T22:01:24.293Z,0.90
2022-09-15T22:04:00.433Z,1.05
2022-09-15T22:06:31.796Z,0.73
2022-09-15T22:09:06.856Z,0.75
2022-09-15T22:11:34.300Z,0.90
2022-09-15T22:16:30.399Z,0.70
2022-09-15T22:18:57.514Z,0.90
2022-09-15T22:21:27.231Z,0.98
2022-09-15T22:23:56.151Z,1.15
2022-09-15T22:26:26.345Z,0.75
2022-09-15T22:28:53.602Z,1.02
2022-09-15T22:31:22.060Z,0.82
2022-09-15T22:33:49.193Z,0.70
2022-09-15T22:36:29.535Z,0.88
2022-09-15T22:39:04.826Z,0.90
2022-09-15T22:41:34.599Z,0.85
2022-09-15T22:44:01.965Z,0.93
2022-09-15T22:46:28.965Z,1.05
2022-09-15T22:48:55.922Z,1.15
2022-09-15T22:51:22.962Z,1.60
2022-09-15T22:53:54.049Z,1.00
2022-09-15T22:56:21.439Z,1.00
2022-09-15T22:58:49.553Z,1.20
2022-09-15T23:01:21.570Z,1.58
2022-09-15T23:03:53.447Z,1.15
2022-09-15T23:06:21.098Z,1.80
2022-09-15T23:08:52.663Z,1.02
2022-09-15T23:11:20.154Z,1.20
2022-09-15T23:16:14.014Z,1.35
2022-09-15T23:18:41.064Z,1.33
2022-09-15T23:21:10.348Z,1.60
2022-09-15T23:23:39.741Z,1.30
2022-09-15T23:26:09.896Z,1.15
2022-09-15T23:28:37.569Z,1.33
2022-09-15T23:31:04.654Z,1.00
2022-09-15T23:33:32.446Z,1.30
2022-09-15T23:36:03.067Z,1.30
2022-09-15T23:38:30.514Z,1.10
2022-09-15T23:43:24.628Z,1.40
2022-09-15T23:45:51.636Z,1.73
2022-09-15T23:48:18.727Z,1.67
2022-09-15T23:50:46.455Z,1.42
2022-09-15T23:53:13.503Z,1.52
2022-09-15T23:55:40.509Z,0.95
2022-09-15T23:58:07.481Z,1.30
